Time;durP1;ratioP1;P1;durP2;ratioP2;P2;SDS_P1;SDS_P2;PMS_P1;PMS_P2;Temp;Humidity;BMP_temperature;BMP_pressure;BME280_temperature;BME280_humidity;BME280_pressure;Samples;Min_cycle;Max_cycle;Signal;HPM_P1;HPM_P2
2023/09/25 00:00:34;;;;;;;1.40;1.40;;;21.30;73.70;;;;;;5016536;28;43573;-70
2023/09/25 00:03:04;;;;;;;1.30;1.30;;;21.20;73.90;;;;;;5017561;28;43421;-69
2023/09/25 00:05:33;;;;;;;1.40;1.40;;;21.20;74.30;;;;;;5018797;28;43579;-69
2023/09/25 00:08:01;;;;;;;1.10;1.10;;;21.30;74.00;;;;;;5014150;28;44088;-69
2023/09/25 00:10:32;;;;;;;1.20;1.20;;;21.40;73.80;;;;;;5013456;28;43850;-70
2023/09/25 00:13:02;;;;;;;1.23;1.23;;;21.40;73.60;;;;;;5016576;28;43442;-69
2023/09/25 00:15:31;;;;;;;1.30;1.30;;;21.40;73.60;;;;;;5019888;28;43385;-69
2023/09/25 00:18:00;;;;;;;1.30;1.30;;;21.40;73.80;;;;;;5010616;28;43580;-69
2023/09/25 00:20:28;;;;;;;1.13;1.13;;;21.40;73.70;;;;;;5018386;28;43409;-64
2023/09/25 00:22:56;;;;;;;1.40;1.40;;;21.40;73.60;;;;;;5010425;28;43437;-63
2023/09/25 00:25:24;;;;;;;1.33;1.33;;;21.30;73.50;;;;;;5016309;28;43987;-64
2023/09/25 00:27:52;;;;;;;1.27;1.27;;;21.30;73.70;;;;;;5008391;28;45964;-63
2023/09/25 00:30:21;;;;;;;1.20;1.20;;;21.20;74.10;;;;;;5019554;28;43520;-63
2023/09/25 00:32:51;;;;;;;1.13;1.13;;;21.30;74.00;;;;;;5018986;28;43905;-63
2023/09/25 00:35:20;;;;;;;1.40;1.40;;;21.20;73.70;;;;;;4992418;28;43575;-62
2023/09/25 00:37:48;;;;;;;1.30;1.30;;;21.20;73.80;;;;;;5004337;28;46052;-63
2023/09/25 00:40:18;;;;;;;1.20;1.20;;;21.20;74.10;;;;;;5011677;28;43988;-63
2023/09/25 00:42:47;;;;;;;1.30;1.30;;;21.20;74.50;;;;;;4997964;28;43515;-63
2023/09/25 00:45:15;;;;;;;1.47;1.47;;;21.20;74.10;;;;;;5008100;28;43448;-64
2023/09/25 00:47:44;;;;;;;1.37;1.37;;;21.40;73.80;;;;;;5004996;28;45992;-64
2023/09/25 00:50:13;;;;;;;1.40;1.40;;;21.50;73.30;;;;;;5002130;28;44838;-66
2023/09/25 00:52:43;;;;;;;1.27;1.27;;;21.60;73.00;;;;;;5009444;28;43485;-64
2023/09/25 00:55:11;;;;;;;1.50;1.30;;;21.50;72.80;;;;;;5010794;28;44116;-64
2023/09/25 00:57:39;;;;;;;1.30;1.30;;;21.50;73.00;;;;;;5002915;28;44839;-64
2023/09/25 01:00:12;;;;;;;1.20;1.20;;;21.50;73.20;;;;;;4993672;28;45038;-68
2023/09/25 01:02:40;;;;;;;1.30;1.30;;;21.40;73.80;;;;;;5048789;22;44083;-69
2023/09/25 01:05:10;;;;;;;1.20;1.20;;;21.30;73.70;;;;;;5094614;28;43430;-69
2023/09/25 01:07:39;;;;;;;1.30;1.30;;;21.30;73.70;;;;;;5106068;28;43727;-69
2023/09/25 01:10:09;;;;;;;1.10;1.10;;;21.30;73.70;;;;;;5080422;28;44690;-69
2023/09/25 01:12:38;;;;;;;1.20;1.20;;;21.30;74.00;;;;;;5101504;28;43387;-69
2023/09/25 01:15:07;;;;;;;1.47;1.43;;;21.20;74.30;;;;;;5081718;28;43476;-70
2023/09/25 01:17:35;;;;;;;1.40;1.40;;;21.20;74.30;;;;;;5102978;28;43608;-69
2023/09/25 01:20:13;;;;;;;2.90;1.40;;;21.20;74.20;;;;;;5099244;28;44050;-68
2023/09/25 01:22:44;;;;;;;1.20;1.20;;;21.20;74.20;;;;;;5094063;28;43467;-69
2023/09/25 01:25:12;;;;;;;1.17;1.17;;;21.20;74.30;;;;;;5079573;28;43628;-70
2023/09/25 01:27:40;;;;;;;1.20;1.20;;;21.20;74.70;;;;;;5102403;28;43603;-70
2023/09/25 01:30:09;;;;;;;1.30;1.30;;;21.20;74.40;;;;;;5087887;28;43657;-70
2023/09/25 01:32:37;;;;;;;1.50;1.50;;;21.30;74.00;;;;;;5084342;28;43424;-69
2023/09/25 01:35:08;;;;;;;1.10;1.10;;;21.40;73.50;;;;;;5085645;28;43520;-69
2023/09/25 01:37:36;;;;;;;1.20;1.20;;;21.50;73.10;;;;;;5086866;28;45695;-70
2023/09/25 01:40:08;;;;;;;1.30;1.30;;;21.50;72.90;;;;;;5086903;28;44861;-70
2023/09/25 01:42:36;;;;;;;1.10;1.10;;;21.50;73.00;;;;;;5078774;28;43442;-71
2023/09/25 01:45:05;;;;;;;1.30;1.30;;;21.40;73.20;;;;;;5092535;28;43484;-71
2023/09/25 01:47:33;;;;;;;1.10;1.10;;;21.40;73.60;;;;;;5081829;28;45729;-70
2023/09/25 01:50:03;;;;;;;1.50;1.50;;;21.30;73.80;;;;;;5090441;28;44715;-70
2023/09/25 01:52:31;;;;;;;1.13;1.13;;;21.30;73.80;;;;;;5075924;28;43532;-70
2023/09/25 01:55:00;;;;;;;1.33;1.33;;;21.20;73.80;;;;;;5060506;28;43456;-70
2023/09/25 01:57:29;;;;;;;1.20;1.20;;;21.20;74.00;;;;;;5086477;28;45705;-70
2023/09/25 01:59:57;;;;;;;1.30;1.30;;;21.20;74.40;;;;;;5070443;28;43763;-70
2023/09/25 02:02:25;;;;;;;1.20;1.20;;;21.20;74.40;;;;;;5072176;28;43413;-70
2023/09/25 02:04:54;;;;;;;1.17;1.17;;;21.20;74.20;;;;;;5104219;28;43920;-70
2023/09/25 02:07:22;;;;;;;1.00;1.00;;;21.20;74.20;;;;;;5108748;28;46013;-70
2023/09/25 02:09:50;;;;;;;1.10;1.10;;;21.10;74.20;;;;;;5079657;28;45130;-70
2023/09/25 02:12:19;;;;;;;1.10;1.10;;;21.10;74.80;;;;;;5095971;28;43471;-70
2023/09/25 02:14:49;;;;;;;1.30;1.30;;;21.10;74.50;;;;;;5075506;28;43617;-70
2023/09/25 02:17:17;;;;;;;1.20;1.20;;;21.20;74.20;;;;;;5083907;28;45987;-70
2023/09/25 02:19:46;;;;;;;1.10;1.10;;;21.40;73.80;;;;;;5072704;28;45015;-72
2023/09/25 02:22:14;;;;;;;1.37;1.37;;;21.50;73.30;;;;;;5077707;28;43403;-71
2023/09/25 02:24:43;;;;;;;1.10;1.10;;;21.50;73.00;;;;;;5066230;28;43416;-72
2023/09/25 02:27:11;;;;;;;1.17;1.17;;;21.50;73.10;;;;;;5065863;28;45776;-72
2023/09/25 02:29:39;;;;;;;1.30;1.30;;;21.40;73.20;;;;;;5061572;28;44431;-66
2023/09/25 02:32:08;;;;;;;1.30;1.20;;;21.30;73.30;;;;;;5068438;28;43484;-66
2023/09/25 02:34:37;;;;;;;1.23;1.23;;;21.30;73.80;;;;;;5071004;28;43576;-66
2023/09/25 02:37:04;;;;;;;1.10;1.10;;;21.30;73.90;;;;;;5089205;28;43612;-65
2023/09/25 02:39:32;;;;;;;1.17;1.17;;;21.20;73.80;;;;;;5069019;28;43424;-66
2023/09/25 02:42:01;;;;;;;1.10;1.10;;;21.20;74.00;;;;;;5087799;28;43395;-66
2023/09/25 02:44:29;;;;;;;1.20;1.20;;;21.20;74.20;;;;;;5071253;28;43521;-66
2023/09/25 02:46:57;;;;;;;1.20;1.20;;;21.10;74.30;;;;;;5065958;28;45692;-66
2023/09/25 02:49:26;;;;;;;1.17;1.17;;;21.10;74.30;;;;;;5067606;28;44734;-66
2023/09/25 02:51:54;;;;;;;1.07;1.07;;;21.10;74.20;;;;;;5090754;28;43520;-67
2023/09/25 02:54:22;;;;;;;1.20;1.20;;;21.10;74.20;;;;;;5060983;27;43569;-66
2023/09/25 02:56:50;;;;;;;1.20;1.20;;;21.10;74.70;;;;;;5065094;28;46055;-66
2023/09/25 02:59:18;;;;;;;1.30;1.30;;;21.10;74.50;;;;;;5057974;28;44716;-66
2023/09/25 03:01:46;;;;;;;1.30;1.30;;;21.20;74.30;;;;;;5071295;27;43428;-66
2023/09/25 03:04:14;;;;;;;1.30;1.30;;;21.30;73.90;;;;;;5072169;28;43825;-66
2023/09/25 03:06:45;;;;;;;1.10;1.10;;;21.40;73.40;;;;;;5069783;28;46116;-67
2023/09/25 03:09:13;;;;;;;1.20;1.20;;;21.50;73.20;;;;;;5069352;28;45139;-65
2023/09/25 03:11:41;;;;;;;1.20;1.20;;;21.50;73.10;;;;;;5081606;28;43452;-65
2023/09/25 03:14:09;;;;;;;1.20;1.20;;;21.40;73.20;;;;;;5068924;28;43517;-66
2023/09/25 03:16:37;;;;;;;1.10;1.10;;;21.30;73.40;;;;;;5064553;28;45675;-67
2023/09/25 03:19:07;;;;;;;1.20;1.20;;;21.30;73.90;;;;;;5088028;28;43462;-66
2023/09/25 03:21:35;;;;;;;1.10;1.10;;;21.20;73.80;;;;;;5068117;28;43389;-65
2023/09/25 03:24:05;;;;;;;1.13;1.13;;;21.20;73.90;;;;;;5065731;28;43608;-66
2023/09/25 03:26:33;;;;;;;1.10;1.10;;;21.20;74.00;;;;;;5066010;28;45807;-66
2023/09/25 03:29:02;;;;;;;1.10;1.10;;;21.20;74.70;;;;;;5068853;28;44429;-70
2023/09/25 03:31:30;;;;;;;1.30;1.30;;;21.10;74.30;;;;;;5081068;28;43420;-70
2023/09/25 03:33:58;;;;;;;1.27;1.27;;;21.10;74.90;;;;;;5102525;28;44044;-70
2023/09/25 03:36:26;;;;;;;1.33;1.33;;;21.10;74.00;;;;;;5080126;28;44899;-70
2023/09/25 03:38:54;;;;;;;1.07;1.07;;;21.10;73.80;;;;;;5066215;28;43349;-71
2023/09/25 03:41:24;;;;;;;1.20;1.20;;;21.10;74.00;;;;;;5048859;28;43525;-72
2023/09/25 03:43:52;;;;;;;1.10;1.10;;;21.10;74.50;;;;;;5065634;28;43534;-71
2023/09/25 03:46:20;;;;;;;1.23;1.23;;;21.10;74.40;;;;;;5085307;28;45358;-72
2023/09/25 03:48:50;;;;;;;1.20;1.20;;;21.20;74.10;;;;;;5085207;28;44598;-72
2023/09/25 03:51:19;;;;;;;1.30;1.30;;;21.30;73.70;;;;;;5067364;28;43390;-72
2023/09/25 03:53:47;;;;;;;1.00;1.00;;;21.50;73.20;;;;;;5062524;28;44073;-72
2023/09/25 03:56:15;;;;;;;1.27;1.27;;;21.50;72.90;;;;;;5059602;28;45358;-72
2023/09/25 03:58:45;;;;;;;1.20;1.20;;;21.50;72.80;;;;;;5082131;28;43507;-72
2023/09/25 04:01:13;;;;;;;1.20;1.20;;;21.40;73.50;;;;;;5064099;28;43919;-72
2023/09/25 04:03:41;;;;;;;1.10;1.10;;;21.40;73.10;;;;;;5074433;28;43321;-71
2023/09/25 04:06:09;;;;;;;1.20;1.20;;;21.30;73.60;;;;;;5078590;28;43620;-71
2023/09/25 04:08:37;;;;;;;1.10;1.10;;;21.30;73.70;;;;;;5085342;28;43895;-72
2023/09/25 04:11:05;;;;;;;1.10;1.10;;;21.30;73.60;;;;;;5083330;28;43336;-72
2023/09/25 04:13:33;;;;;;;1.10;1.10;;;21.20;73.70;;;;;;5061227;28;43923;-72
2023/09/25 04:16:06;;;;;;;1.10;1.10;;;21.20;74.00;;;;;;5081144;28;43831;-72
2023/09/25 04:18:35;;;;;;;1.20;1.20;;;21.10;74.20;;;;;;5078451;28;43860;-71
2023/09/25 04:21:05;;;;;;;1.10;1.10;;;21.20;74.00;;;;;;5077830;28;43514;-70
2023/09/25 04:23:34;;;;;;;1.20;1.20;;;21.30;73.60;;;;;;5079981;28;43471;-71
2023/09/25 04:26:04;;;;;;;1.20;1.20;;;21.50;73.30;;;;;;5079524;28;44035;-71
2023/09/25 04:28:32;;;;;;;1.23;1.23;;;21.50;73.00;;;;;;5077911;28;43945;-71
2023/09/25 04:31:05;;;;;;;1.30;1.30;;;21.50;73.00;;;;;;5078545;28;43395;-73
2023/09/25 04:33:33;;;;;;;0.90;0.90;;;21.40;73.10;;;;;;5080090;28;43455;-73
2023/09/25 04:36:01;;;;;;;2.10;1.10;;;21.30;73.30;;;;;;5085461;28;43694;-72
2023/09/25 04:38:30;;;;;;;1.20;1.20;;;21.30;72.80;;;;;;5077546;28;43483;-70
2023/09/25 04:40:59;;;;;;;1.20;1.20;;;21.20;73.20;;;;;;5088251;28;43426;-67
2023/09/25 04:43:27;;;;;;;1.30;1.30;;;21.20;73.30;;;;;;5085855;28;43462;-66
2023/09/25 04:45:58;;;;;;;1.00;1.00;;;21.20;73.40;;;;;;5090722;28;43624;-66
2023/09/25 04:48:30;;;;;;;1.23;1.23;;;21.20;73.70;;;;;;5075947;28;43409;-69
2023/09/25 04:50:59;;;;;;;1.03;1.03;;;21.10;73.80;;;;;;5072152;28;43509;-72
2023/09/25 04:53:27;;;;;;;1.07;1.07;;;21.10;74.00;;;;;;5068268;28;44016;-72
2023/09/25 04:55:55;;;;;;;1.00;1.00;;;21.00;74.00;;;;;;5078533;28;43879;-72
2023/09/25 04:58:23;;;;;;;1.23;1.20;;;21.00;74.20;;;;;;5068043;28;44028;-72
2023/09/25 05:00:53;;;;;;;2.20;1.30;;;21.00;74.30;;;;;;5072288;28;43428;-72
2023/09/25 05:03:21;;;;;;;1.50;1.50;;;21.00;74.40;;;;;;5072314;28;43368;-71
2023/09/25 05:05:51;;;;;;;1.53;1.43;;;21.00;74.50;;;;;;5066360;28;43742;-72
2023/09/25 05:08:19;;;;;;;1.30;1.30;;;21.00;74.20;;;;;;5079086;28;43491;-72
2023/09/25 05:10:49;;;;;;;1.40;1.30;;;21.20;74.00;;;;;;5076346;28;43360;-72
2023/09/25 05:13:17;;;;;;;1.23;1.23;;;21.40;73.40;;;;;;5080750;28;44011;-72
2023/09/25 05:15:45;;;;;;;1.20;1.20;;;21.60;72.70;;;;;;5074554;28;43608;-72
2023/09/25 05:18:13;;;;;;;1.53;1.43;;;21.80;72.00;;;;;;5073618;28;43344;-72
2023/09/25 05:20:41;;;;;;;1.20;1.20;;;22.00;71.30;;;;;;5076732;28;43443;-72
2023/09/25 05:23:11;;;;;;;1.33;1.17;;;22.10;70.70;;;;;;5063356;28;43594;-72
2023/09/25 05:25:39;;;;;;;1.10;1.10;;;22.30;70.30;;;;;;5084479;28;43828;-72
2023/09/25 05:28:07;;;;;;;1.20;1.20;;;22.40;69.90;;;;;;5085284;28;43439;-72
2023/09/25 05:30:35;;;;;;;1.10;1.10;;;22.50;69.60;;;;;;5065783;28;43905;-72
2023/09/25 05:33:03;;;;;;;1.30;1.30;;;22.50;69.30;;;;;;5083870;28;43397;-72
2023/09/25 05:35:31;;;;;;;3.70;1.40;;;22.50;69.30;;;;;;5064336;28;46079;-72
2023/09/25 05:37:59;;;;;;;1.50;1.40;;;22.40;69.60;;;;;;5068633;28;44716;-72
2023/09/25 05:40:29;;;;;;;1.90;1.20;;;22.30;70.00;;;;;;5085155;28;43422;-72
2023/09/25 05:42:57;;;;;;;1.93;1.30;;;22.10;70.40;;;;;;5082061;28;43809;-72
2023/09/25 05:45:25;;;;;;;2.17;1.30;;;22.00;70.70;;;;;;5084505;28;43833;-72
2023/09/25 05:47:54;;;;;;;3.13;1.40;;;22.00;71.20;;;;;;5082574;28;43935;-72
2023/09/25 05:50:22;;;;;;;1.53;1.43;;;21.80;71.40;;;;;;5091577;28;43662;-70
2023/09/25 05:52:50;;;;;;;1.17;1.17;;;21.70;71.90;;;;;;5106057;28;43436;-70
2023/09/25 05:55:18;;;;;;;3.13;1.27;;;21.60;72.30;;;;;;5104076;28;43911;-70
2023/09/25 05:57:48;;;;;;;1.33;1.23;;;21.60;72.30;;;;;;5079787;28;44713;-70
2023/09/25 06:00:18;;;;;;;1.10;1.10;;;21.70;72.10;;;;;;5100358;28;43373;-70
2023/09/25 06:02:47;;;;;;;1.20;1.20;;;21.80;71.70;;;;;;5097289;28;43471;-70
2023/09/25 06:05:15;;;;;;;1.30;1.30;;;21.80;71.60;;;;;;5098734;28;43670;-70
2023/09/25 06:07:43;;;;;;;1.53;1.33;;;21.80;71.80;;;;;;5098280;28;43395;-70
2023/09/25 06:10:12;;;;;;;1.20;1.20;;;21.60;71.90;;;;;;5109118;28;43395;-69
2023/09/25 06:12:40;;;;;;;1.10;1.10;;;21.60;72.30;;;;;;5104367;28;43360;-70
2023/09/25 06:15:10;;;;;;;1.40;1.30;;;21.50;72.70;;;;;;5104992;28;43616;-70
2023/09/25 06:17:39;;;;;;;1.10;1.10;;;21.40;72.80;;;;;;5104838;28;43401;-70
2023/09/25 06:20:15;;;;;;;1.17;1.17;;;21.40;72.80;;;;;;5092219;28;43368;-69
2023/09/25 06:22:44;;;;;;;1.13;1.13;;;21.30;72.90;;;;;;5104966;28;43426;-70
2023/09/25 06:25:16;;;;;;;1.20;1.20;;;21.30;73.30;;;;;;5107242;28;45044;-70
2023/09/25 06:27:45;;;;;;;1.20;1.20;;;21.20;73.40;;;;;;5102660;28;43361;-70
2023/09/25 06:30:16;;;;;;;1.70;1.37;;;21.20;73.20;;;;;;5099538;27;43423;-70
2023/09/25 06:32:44;;;;;;;1.10;1.10;;;21.20;73.20;;;;;;5108378;28;43786;-70
2023/09/25 06:35:13;;;;;;;1.17;1.17;;;21.20;73.30;;;;;;5105355;28;43603;-70
2023/09/25 06:37:41;;;;;;;1.10;1.10;;;21.20;73.90;;;;;;5109653;28;43435;-70
2023/09/25 06:40:10;;;;;;;1.30;1.30;;;21.20;73.80;;;;;;5105817;28;43368;-70
2023/09/25 06:42:39;;;;;;;1.20;1.20;;;21.30;73.50;;;;;;5106832;28;43395;-70
2023/09/25 06:45:09;;;;;;;1.10;1.10;;;21.50;73.00;;;;;;5089193;28;46009;-70
2023/09/25 06:47:39;;;;;;;1.13;1.13;;;21.60;72.40;;;;;;5105911;28;43420;-70
2023/09/25 06:50:07;;;;;;;1.20;1.20;;;21.60;72.20;;;;;;5103742;28;44050;-70
2023/09/25 06:52:36;;;;;;;1.17;1.17;;;21.60;72.20;;;;;;5110409;28;43385;-70
2023/09/25 06:55:06;;;;;;;1.30;1.30;;;21.50;72.20;;;;;;5099062;28;43591;-70
2023/09/25 06:57:34;;;;;;;1.30;1.30;;;21.50;72.70;;;;;;5085709;28;43426;-70
2023/09/25 07:00:03;;;;;;;1.20;1.20;;;21.40;73.00;;;;;;5081116;28;43366;-70
2023/09/25 07:02:31;;;;;;;1.10;1.10;;;21.40;73.10;;;;;;5070254;28;43440;-70
2023/09/25 07:05:00;;;;;;;1.20;1.20;;;21.30;73.00;;;;;;5087791;28;43923;-70
2023/09/25 07:07:29;;;;;;;1.20;1.20;;;21.30;73.20;;;;;;5080912;28;43365;-70
2023/09/25 07:09:57;;;;;;;1.30;1.30;;;21.20;73.70;;;;;;5056097;28;43859;-67
2023/09/25 07:12:25;;;;;;;1.33;1.33;;;21.20;73.70;;;;;;5088874;28;43408;-67
2023/09/25 07:14:56;;;;;;;1.10;1.10;;;21.20;73.70;;;;;;5082365;28;43868;-67
2023/09/25 07:17:24;;;;;;;1.40;1.40;;;21.20;73.80;;;;;;5075623;28;43867;-67
2023/09/25 07:19:53;;;;;;;1.30;1.30;;;21.10;73.80;;;;;;5087888;28;43372;-66
2023/09/25 07:22:23;;;;;;;1.03;1.03;;;21.10;74.10;;;;;;5080734;28;43405;-66
2023/09/25 07:24:51;;;;;;;1.10;1.10;;;21.20;74.00;;;;;;5065576;28;43624;-66
2023/09/25 07:27:20;;;;;;;1.20;1.20;;;21.30;73.60;;;;;;5075280;28;43482;-66
2023/09/25 07:29:49;;;;;;;1.20;1.20;;;21.40;73.00;;;;;;5086613;28;43395;-69
2023/09/25 07:32:19;;;;;;;1.10;1.10;;;21.50;72.80;;;;;;5091933;28;43398;-66
2023/09/25 07:34:48;;;;;;;1.10;1.10;;;21.50;72.70;;;;;;5086081;28;43701;-66
2023/09/25 07:37:17;;;;;;;1.17;1.17;;;21.50;72.90;;;;;;5084346;28;43430;-66
2023/09/25 07:39:47;;;;;;;1.20;1.20;;;21.40;73.10;;;;;;5088917;28;43467;-66
2023/09/25 07:42:16;;;;;;;1.20;1.20;;;21.30;73.50;;;;;;5080914;28;43387;-66
2023/09/25 07:44:48;;;;;;;1.00;1.00;;;21.20;73.60;;;;;;5078504;28;43596;-66
2023/09/25 07:47:18;;;;;;;1.17;1.17;;;21.20;73.60;;;;;;5084178;28;43352;-66
2023/09/25 07:49:46;;;;;;;1.10;1.10;;;21.20;73.70;;;;;;5064643;28;43455;-66
2023/09/25 07:52:16;;;;;;;0.90;0.90;;;21.10;73.80;;;;;;5083391;28;43498;-66
2023/09/25 07:54:45;;;;;;;1.10;1.10;;;21.10;74.20;;;;;;5082577;28;43861;-67
2023/09/25 07:57:15;;;;;;;1.03;1.03;;;21.10;74.10;;;;;;5082631;28;43397;-68
2023/09/25 07:59:43;;;;;;;1.30;1.30;;;21.20;73.80;;;;;;5067350;28;43403;-66
2023/09/25 08:02:16;;;;;;;1.13;1.13;;;21.20;73.50;;;;;;5088540;28;43374;-67
2023/09/25 08:04:44;;;;;;;1.20;1.20;;;21.30;73.60;;;;;;5089241;28;43612;-68
2023/09/25 08:07:12;;;;;;;1.00;1.00;;;21.20;73.70;;;;;;5080778;28;44000;-66
2023/09/25 08:09:41;;;;;;;1.20;1.20;;;21.20;74.00;;;;;;5086351;28;43612;-66
2023/09/25 08:12:09;;;;;;;1.40;1.40;;;21.20;73.90;;;;;;5086629;28;43364;-66
2023/09/25 08:14:39;;;;;;;1.20;1.20;;;21.20;73.90;;;;;;5091615;28;43607;-67
2023/09/25 08:17:08;;;;;;;1.30;1.20;;;21.20;74.00;;;;;;5085742;28;43422;-67
2023/09/25 08:19:36;;;;;;;1.13;1.13;;;21.10;74.80;;;;;;5083193;28;43527;-72
2023/09/25 08:22:05;;;;;;;1.13;1.13;;;21.10;74.30;;;;;;5077197;28;43924;-72
2023/09/25 08:24:33;;;;;;;1.10;1.10;;;21.10;74.20;;;;;;5082263;28;43822;-72
2023/09/25 08:27:01;;;;;;;1.20;1.20;;;21.10;74.20;;;;;;5078078;28;43429;-72
2023/09/25 08:29:30;;;;;;;1.10;1.10;;;21.00;74.20;;;;;;5086035;28;43436;-72
2023/09/25 08:32:00;;;;;;;1.20;1.20;;;21.00;74.50;;;;;;5061608;28;43607;-72
2023/09/25 08:34:29;;;;;;;1.10;1.10;;;21.00;74.60;;;;;;5080888;28;43849;-72
2023/09/25 08:36:57;;;;;;;1.20;1.20;;;21.10;74.40;;;;;;5075105;28;43504;-71
2023/09/25 08:39:25;;;;;;;1.10;1.10;;;21.20;74.10;;;;;;5077194;28;43353;-72
2023/09/25 08:41:53;;;;;;;1.00;1.00;;;21.20;73.90;;;;;;5081767;28;43665;-72
2023/09/25 08:44:22;;;;;;;1.00;1.00;;;21.20;73.70;;;;;;5076121;28;43707;-72
2023/09/25 08:46:50;;;;;;;1.00;1.00;;;21.20;74.20;;;;;;5077025;28;43514;-72
2023/09/25 08:49:19;;;;;;;0.97;0.97;;;21.20;74.10;;;;;;5068136;28;43708;-72
2023/09/25 08:51:47;;;;;;;1.20;1.20;;;21.20;74.00;;;;;;5077087;28;43398;-72
2023/09/25 08:54:15;;;;;;;1.20;1.20;;;21.10;74.00;;;;;;5086491;27;43869;-71
2023/09/25 08:56:45;;;;;;;1.10;1.10;;;21.10;74.10;;;;;;5073547;28;43390;-71
2023/09/25 08:59:13;;;;;;;1.20;1.20;;;21.00;74.50;;;;;;5077574;28;43411;-71
2023/09/25 09:01:41;;;;;;;1.10;1.10;;;21.10;74.60;;;;;;5081356;28;44018;-71
2023/09/25 09:04:10;;;;;;;1.20;1.20;;;21.10;74.40;;;;;;5084465;28;43599;-71
2023/09/25 09:06:40;;;;;;;1.30;1.30;;;21.00;74.30;;;;;;5085498;28;43374;-72
2023/09/25 09:09:09;;;;;;;1.17;1.17;;;21.00;74.40;;;;;;5083273;28;43426;-72
2023/09/25 09:11:39;;;;;;;1.03;1.03;;;21.00;75.00;;;;;;5082341;28;43403;-72
2023/09/25 09:14:07;;;;;;;1.10;1.10;;;21.00;74.70;;;;;;5084561;28;43600;-72
2023/09/25 09:16:35;;;;;;;1.10;1.10;;;21.10;74.40;;;;;;5085579;28;43487;-72
2023/09/25 09:19:06;;;;;;;1.00;1.00;;;21.30;74.10;;;;;;5085558;28;43375;-72
2023/09/25 09:21:35;;;;;;;1.00;1.00;;;21.40;73.60;;;;;;5080758;28;43406;-71
2023/09/25 09:24:08;;;;;;;1.10;1.10;;;21.40;73.40;;;;;;5087108;28;43599;-71
2023/09/25 09:26:37;;;;;;;0.97;0.97;;;21.40;73.50;;;;;;5082457;28;43411;-71
2023/09/25 09:29:05;;;;;;;1.10;1.10;;;21.30;73.60;;;;;;5083307;28;43450;-71
2023/09/25 09:31:33;;;;;;;1.10;1.10;;;21.20;74.00;;;;;;5082466;28;43469;-71
2023/09/25 09:34:01;;;;;;;1.30;1.30;;;21.20;74.30;;;;;;5066928;28;44965;-71
2023/09/25 09:36:29;;;;;;;1.20;1.20;;;21.10;74.20;;;;;;5082850;28;43360;-71
2023/09/25 09:38:57;;;;;;;1.30;1.30;;;21.10;74.30;;;;;;5084145;28;43524;-71
2023/09/25 09:41:27;;;;;;;1.20;1.20;;;21.10;74.50;;;;;;5085126;28;43557;-70
2023/09/25 09:43:55;;;;;;;1.10;1.10;;;21.00;74.70;;;;;;5055886;28;46403;-71
2023/09/25 09:46:25;;;;;;;1.00;1.00;;;21.00;74.80;;;;;;5058276;28;43409;-71
2023/09/25 09:48:54;;;;;;;1.00;1.00;;;21.00;74.70;;;;;;5083530;28;43949;-71
2023/09/25 09:51:22;;;;;;;1.03;1.03;;;21.00;74.70;;;;;;5062399;28;43516;-71
2023/09/25 09:53:52;;;;;;;1.00;1.00;;;21.00;74.80;;;;;;5085842;28;43794;-71
2023/09/25 09:56:20;;;;;;;1.10;1.10;;;21.00;75.30;;;;;;5085002;28;43470;-72
2023/09/25 09:58:50;;;;;;;1.20;1.20;;;21.00;75.00;;;;;;5080231;28;43416;-72
2023/09/25 10:01:18;;;;;;;1.00;1.00;;;21.10;74.70;;;;;;5086259;28;43452;-73
2023/09/25 10:03:47;;;;;;;1.10;1.10;;;21.20;74.30;;;;;;5079627;28;43839;-72
2023/09/25 10:06:16;;;;;;;0.90;0.90;;;21.30;73.90;;;;;;5067527;28;45062;-72
2023/09/25 10:09:02;;;;;;;1.10;1.10;;;21.30;73.80;;;;;;5066807;28;43405;-72
2023/09/25 10:11:30;;;;;;;1.10;1.10;;;21.30;73.90;;;;;;5073787;28;43395;-71
2023/09/25 10:14:03;;;;;;;1.10;1.10;;;21.30;74.10;;;;;;5072224;28;43941;-71
2023/09/25 10:16:46;;;;;;;1.03;1.03;;;21.20;74.50;;;;;;5076365;28;43517;-72
2023/09/25 10:19:19;;;;;;;1.17;1.17;;;21.20;74.50;;;;;;5081526;28;43878;-72
2023/09/25 10:22:12;;;;;;;1.07;1.07;;;21.20;74.60;;;;;;5083533;28;43387;-72
2023/09/25 10:24:41;;;;;;;1.13;1.13;;;21.20;74.70;;;;;;5076624;28;43604;-71
2023/09/25 10:27:11;;;;;;;1.23;1.23;;;21.10;75.50;;;;;;5065442;28;44793;-72
2023/09/25 10:29:40;;;;;;;0.90;0.90;;;21.10;75.10;;;;;;5069251;28;44010;-72
2023/09/25 10:32:11;;;;;;;1.10;1.10;;;21.10;74.90;;;;;;5076824;28;43444;-72
2023/09/25 10:34:39;;;;;;;1.00;1.00;;;21.10;75.00;;;;;;5082174;28;43897;-72
2023/09/25 10:37:08;;;;;;;1.20;1.20;;;21.10;75.00;;;;;;5086409;28;44025;-72
2023/09/25 10:39:36;;;;;;;0.90;0.90;;;21.00;75.10;;;;;;5083099;28;43843;-66
2023/09/25 10:42:07;;;;;;;0.90;0.90;;;21.00;75.30;;;;;;5087557;28;43436;-66
2023/09/25 10:44:36;;;;;;;1.10;1.10;;;21.10;75.00;;;;;;5087057;28;43832;-66
2023/09/25 10:47:07;;;;;;;1.00;1.00;;;21.20;74.60;;;;;;5083544;28;43474;-67
2023/09/25 10:49:37;;;;;;;1.03;1.03;;;21.30;74.00;;;;;;5089045;28;43417;-66
2023/09/25 10:52:05;;;;;;;1.07;1.07;;;21.40;73.80;;;;;;5083539;28;43412;-67
2023/09/25 10:54:34;;;;;;;1.00;1.00;;;21.40;73.90;;;;;;5084896;28;43818;-66
2023/09/25 10:57:02;;;;;;;1.10;1.10;;;21.40;74.10;;;;;;5090915;28;43463;-66
2023/09/25 10:59:30;;;;;;;1.00;1.00;;;21.30;74.20;;;;;;5069858;28;43483;-66
2023/09/25 11:01:58;;;;;;;1.10;1.10;;;21.30;74.60;;;;;;5085207;28;43419;-68
2023/09/25 11:04:28;;;;;;;0.93;0.93;;;21.20;74.50;;;;;;5092228;28;43620;-67
2023/09/25 11:06:56;;;;;;;0.90;0.90;;;21.20;74.60;;;;;;5087438;28;43466;-66
2023/09/25 11:09:24;;;;;;;1.10;1.10;;;21.20;74.70;;;;;;5085425;28;43427;-66
2023/09/25 11:11:54;;;;;;;1.00;1.00;;;21.20;74.90;;;;;;5086959;28;43477;-67
2023/09/25 11:14:23;;;;;;;1.20;1.20;;;21.10;75.10;;;;;;5066128;28;45680;-66
2023/09/25 11:16:51;;;;;;;1.23;1.13;;;21.10;75.00;;;;;;5084582;28;44031;-66
2023/09/25 11:19:19;;;;;;;1.23;1.23;;;21.10;75.10;;;;;;5090066;28;43391;-66
2023/09/25 11:21:50;;;;;;;1.43;1.33;;;21.10;75.10;;;;;;5086238;28;43414;-66
2023/09/25 11:24:18;;;;;;;1.73;1.60;;;21.10;75.10;;;;;;5087560;28;44063;-67
2023/09/25 11:26:48;;;;;;;1.80;1.70;;;21.10;75.40;;;;;;5086598;28;43356;-67
2023/09/25 11:29:16;;;;;;;2.50;1.80;;;21.10;75.20;;;;;;5091655;28;43389;-66
2023/09/25 11:31:44;;;;;;;1.50;1.50;;;21.10;75.20;;;;;;5089892;28;43408;-66
2023/09/25 11:34:15;;;;;;;1.80;1.50;;;21.10;75.30;;;;;;5085250;28;44024;-66
2023/09/25 11:36:44;;;;;;;1.93;1.80;;;21.00;75.30;;;;;;5085433;28;44016;-67
2023/09/25 11:39:15;;;;;;;2.23;2.03;;;21.00;76.20;;;;;;5067104;28;43495;-67
2023/09/25 11:41:43;;;;;;;2.57;2.37;;;21.10;75.40;;;;;;5084309;28;43407;-67
2023/09/25 11:44:11;;;;;;;2.67;2.30;;;21.20;75.00;;;;;;5079447;28;44593;-67
2023/09/25 11:46:39;;;;;;;2.57;2.37;;;21.30;74.50;;;;;;5065107;28;43493;-66
2023/09/25 11:49:07;;;;;;;2.87;2.57;;;21.40;74.00;;;;;;5076693;28;43505;-72
2023/09/25 11:51:36;;;;;;;2.10;2.00;;;21.50;73.90;;;;;;5079859;28;43751;-72
2023/09/25 11:54:05;;;;;;;3.30;2.50;;;21.40;74.00;;;;;;5085659;28;44070;-72
2023/09/25 11:56:34;;;;;;;2.37;2.10;;;21.40;74.10;;;;;;5071619;28;43972;-72
2023/09/25 11:59:02;;;;;;;2.70;2.50;;;21.30;74.30;;;;;;5071802;28;43456;-72
2023/09/25 12:01:30;;;;;;;2.20;2.10;;;21.20;75.30;;;;;;5063514;27;44010;-72
2023/09/25 12:03:58;;;;;;;2.50;2.30;;;21.20;74.60;;;;;;5064213;28;43825;-72
2023/09/25 12:06:28;;;;;;;2.53;2.33;;;21.20;74.80;;;;;;5084913;28;43379;-72
2023/09/25 12:08:56;;;;;;;2.37;2.27;;;21.20;74.90;;;;;;5065417;28;43376;-72
2023/09/25 12:11:24;;;;;;;2.47;2.33;;;21.20;75.10;;;;;;5085407;28;43961;-72
2023/09/25 12:13:54;;;;;;;2.57;2.10;;;21.10;75.10;;;;;;5082331;28;43608;-72
2023/09/25 12:16:22;;;;;;;2.53;2.33;;;21.10;75.10;;;;;;5082762;28;43383;-72
2023/09/25 12:18:50;;;;;;;2.70;2.50;;;21.10;75.10;;;;;;5080060;28;43454;-72
2023/09/25 12:21:19;;;;;;;2.83;2.63;;;21.10;75.20;;;;;;5076489;28;43533;-72
2023/09/25 12:23:47;;;;;;;2.23;2.13;;;21.10;75.30;;;;;;5079429;28;44028;-72
2023/09/25 12:26:16;;;;;;;2.43;2.23;;;21.00;75.50;;;;;;5081698;28;43439;-72
2023/09/25 12:28:44;;;;;;;2.07;1.97;;;21.10;75.20;;;;;;5069430;28;43364;-72
2023/09/25 12:31:13;;;;;;;2.30;2.20;;;21.20;74.80;;;;;;5074445;28;43593;-71
2023/09/25 12:33:42;;;;;;;2.23;2.03;;;21.30;74.30;;;;;;5071552;28;43608;-71
2023/09/25 12:36:10;;;;;;;2.30;2.20;;;21.40;74.00;;;;;;5068525;28;43357;-72
2023/09/25 12:38:39;;;;;;;2.60;2.33;;;21.50;74.00;;;;;;5065288;28;44198;-72
2023/09/25 12:41:08;;;;;;;2.30;2.20;;;21.40;74.10;;;;;;5076215;28;44438;-72
2023/09/25 12:43:36;;;;;;;2.33;2.20;;;21.40;74.30;;;;;;5080915;28;43608;-71
2023/09/25 12:46:04;;;;;;;2.70;2.50;;;21.30;74.50;;;;;;5080235;28;43551;-72
2023/09/25 12:48:33;;;;;;;3.00;2.47;;;21.20;74.70;;;;;;5080020;28;43446;-66
2023/09/25 12:51:02;;;;;;;2.10;2.00;;;21.20;74.80;;;;;;5086247;28;43420;-66
2023/09/25 12:53:30;;;;;;;2.40;2.23;;;21.20;74.90;;;;;;5086220;28;43915;-67
2023/09/25 12:55:58;;;;;;;2.57;2.37;;;21.20;75.00;;;;;;5088747;28;43391;-66